sensor_id;sensor_type;location;lat;lon;timestamp;P1;durP1;ratioP1;P2;durP2;ratioP2
9906;SDS011;4992;51.628;6.664;2022-09-20T00:00:02;8.07;;;2.60;;
9906;SDS011;4992;51.628;6.664;2022-09-20T00:02:29;4.30;;;1.70;;
9906;SDS011;4992;51.628;6.664;2022-09-20T00:04:54;6.63;;;2.30;;
9906;SDS011;4992;51.628;6.664;2022-09-20T00:07:20;6.83;;;2.33;;
9906;SDS011;4992;51.628;6.664;2022-09-20T00:09:46;4.20;;;2.10;;
9906;SDS011;4992;51.628;6.664;2022-09-20T00:12:11;9.90;;;3.27;;
9906;SDS011;4992;51.628;6.664;2022-09-20T00:14:37;4.90;;;2.47;;
9906;SDS011;4992;51.628;6.664;2022-09-20T00:17:02;7.90;;;2.47;;
9906;SDS011;4992;51.628;6.664;2022-09-20T00:19:28;7.37;;;2.60;;
9906;SDS011;4992;51.628;6.664;2022-09-20T00:21:53;5.77;;;2.23;;
9906;SDS011;4992;51.628;6.664;2022-09-20T00:24:19;8.73;;;2.63;;
9906;SDS011;4992;51.628;6.664;2022-09-20T00:26:44;7.00;;;3.03;;
9906;SDS011;4992;51.628;6.664;2022-09-20T00:29:10;8.07;;;2.80;;
9906;SDS011;4992;51.628;6.664;2022-09-20T00:31:36;9.30;;;2.67;;
9906;SDS011;4992;51.628;6.664;2022-09-20T00:34:05;4.40;;;2.63;;
9906;SDS011;4992;51.628;6.664;2022-09-20T00:36:49;8.03;;;3.20;;
9906;SDS011;4992;51.628;6.664;2022-09-20T00:39:15;6.50;;;2.80;;
9906;SDS011;4992;51.628;6.664;2022-09-20T00:41:41;10.93;;;2.83;;
9906;SDS011;4992;51.628;6.664;2022-09-20T00:47:25;13.73;;;2.77;;
9906;SDS011;4992;51.628;6.664;2022-09-20T00:50:36;8.10;;;2.60;;
9906;SDS011;4992;51.628;6.664;2022-09-20T00:52:43;7.60;;;2.53;;
9906;SDS011;4992;51.628;6.664;2022-09-20T00:55:10;7.13;;;2.67;;
9906;SDS011;4992;51.628;6.664;2022-09-20T00:57:37;3.73;;;2.10;;
9906;SDS011;4992;51.628;6.664;2022-09-20T01:00:05;7.03;;;2.70;;
9906;SDS011;4992;51.628;6.664;2022-09-20T01:02:33;5.57;;;2.77;;
9906;SDS011;4992;51.628;6.664;2022-09-20T01:05:01;6.90;;;2.90;;
9906;SDS011;4992;51.628;6.664;2022-09-20T01:07:27;9.77;;;3.10;;
9906;SDS011;4992;51.628;6.664;2022-09-20T01:09:53;7.70;;;3.30;;
9906;SDS011;4992;51.628;6.664;2022-09-20T01:12:21;7.03;;;3.30;;
9906;SDS011;4992;51.628;6.664;2022-09-20T01:14:50;6.57;;;3.43;;
9906;SDS011;4992;51.628;6.664;2022-09-20T01:17:17;5.87;;;3.20;;
9906;SDS011;4992;51.628;6.664;2022-09-20T01:19:53;5.67;;;3.37;;
9906;SDS011;4992;51.628;6.664;2022-09-20T01:22:25;4.73;;;3.37;;
9906;SDS011;4992;51.628;6.664;2022-09-20T01:25:06;8.77;;;3.90;;
9906;SDS011;4992;51.628;6.664;2022-09-20T01:30:17;9.53;;;4.10;;
9906;SDS011;4992;51.628;6.664;2022-09-20T01:35:27;6.80;;;3.77;;
9906;SDS011;4992;51.628;6.664;2022-09-20T01:41:05;7.63;;;4.17;;
9906;SDS011;4992;51.628;6.664;2022-09-20T01:43:39;8.30;;;4.00;;
9906;SDS011;4992;51.628;6.664;2022-09-20T01:46:28;7.90;;;3.60;;
9906;SDS011;4992;51.628;6.664;2022-09-20T01:49:41;9.03;;;4.03;;
9906;SDS011;4992;51.628;6.664;2022-09-20T02:11:28;11.30;;;4.30;;
9906;SDS011;4992;51.628;6.664;2022-09-20T02:19:04;7.17;;;4.43;;
9906;SDS011;4992;51.628;6.664;2022-09-20T02:21:54;7.17;;;3.73;;
9906;SDS011;4992;51.628;6.664;2022-09-20T02:44:02;8.50;;;4.43;;
9906;SDS011;4992;51.628;6.664;2022-09-20T02:46:43;12.87;;;4.77;;
9906;SDS011;4992;51.628;6.664;2022-09-20T03:01:29;10.07;;;5.73;;
9906;SDS011;4992;51.628;6.664;2022-09-20T03:09:33;5.80;;;4.70;;
9906;SDS011;4992;51.628;6.664;2022-09-20T03:12:26;10.90;;;4.67;;
9906;SDS011;4992;51.628;6.664;2022-09-20T03:35:06;12.10;;;5.67;;
9906;SDS011;4992;51.628;6.664;2022-09-20T03:46:20;13.60;;;5.40;;
9906;SDS011;4992;51.628;6.664;2022-09-20T03:48:55;12.27;;;5.30;;
9906;SDS011;4992;51.628;6.664;2022-09-20T03:51:27;10.70;;;5.27;;
9906;SDS011;4992;51.628;6.664;2022-09-20T03:59:53;11.20;;;5.37;;
9906;SDS011;4992;51.628;6.664;2022-09-20T04:02:45;18.47;;;6.13;;
9906;SDS011;4992;51.628;6.664;2022-09-20T04:11:39;10.57;;;5.60;;
9906;SDS011;4992;51.628;6.664;2022-09-20T04:14:22;12.93;;;6.53;;
9906;SDS011;4992;51.628;6.664;2022-09-20T04:20:04;15.00;;;6.57;;
9906;SDS011;4992;51.628;6.664;2022-09-20T04:22:39;12.00;;;5.80;;
9906;SDS011;4992;51.628;6.664;2022-09-20T04:25:14;14.07;;;5.90;;
9906;SDS011;4992;51.628;6.664;2022-09-20T04:27:48;11.37;;;6.80;;
9906;SDS011;4992;51.628;6.664;2022-09-20T04:30:17;13.97;;;5.97;;
9906;SDS011;4992;51.628;6.664;2022-09-20T04:32:51;11.20;;;5.47;;
9906;SDS011;4992;51.628;6.664;2022-09-20T04:38:18;12.27;;;5.60;;
9906;SDS011;4992;51.628;6.664;2022-09-20T04:49:40;8.00;;;4.57;;
9906;SDS011;4992;51.628;6.664;2022-09-20T05:29:07;12.33;;;4.43;;
9906;SDS011;4992;51.628;6.664;2022-09-20T05:31:42;8.37;;;3.57;;
9906;SDS011;4992;51.628;6.664;2022-09-20T05:39:48;13.17;;;3.83;;
9906;SDS011;4992;51.628;6.664;2022-09-20T05:42:19;12.57;;;3.80;;
9906;SDS011;4992;51.628;6.664;2022-09-20T05:45:00;10.70;;;3.73;;
9906;SDS011;4992;51.628;6.664;2022-09-20T05:53:36;9.50;;;4.00;;
9906;SDS011;4992;51.628;6.664;2022-09-20T05:59:05;7.53;;;3.80;;
9906;SDS011;4992;51.628;6.664;2022-09-20T06:01:41;6.23;;;3.70;;
9906;SDS011;4992;51.628;6.664;2022-09-20T06:04:24;13.43;;;4.67;;
9906;SDS011;4992;51.628;6.664;2022-09-20T06:10:22;10.23;;;3.77;;
9906;SDS011;4992;51.628;6.664;2022-09-20T06:12:58;8.17;;;3.70;;
9906;SDS011;4992;51.628;6.664;2022-09-20T06:15:44;7.77;;;3.83;;
9906;SDS011;4992;51.628;6.664;2022-09-20T06:24:00;11.23;;;4.85;;
9906;SDS011;4992;51.628;6.664;2022-09-20T06:26:28;11.60;;;4.68;;
9906;SDS011;4992;51.628;6.664;2022-09-20T06:29:01;10.87;;;5.07;;
9906;SDS011;4992;51.628;6.664;2022-09-20T06:31:29;17.48;;;4.78;;
9906;SDS011;4992;51.628;6.664;2022-09-20T06:33:59;7.23;;;4.40;;
9906;SDS011;4992;51.628;6.664;2022-09-20T06:36:33;9.18;;;5.00;;
9906;SDS011;4992;51.628;6.664;2022-09-20T06:42:30;9.07;;;4.15;;
9906;SDS011;4992;51.628;6.664;2022-09-20T06:44:55;6.95;;;3.80;;
9906;SDS011;4992;51.628;6.664;2022-09-20T06:47:21;13.02;;;4.18;;
9906;SDS011;4992;51.628;6.664;2022-09-20T06:49:47;10.57;;;4.65;;
9906;SDS011;4992;51.628;6.664;2022-09-20T06:52:15;9.80;;;4.60;;
9906;SDS011;4992;51.628;6.664;2022-09-20T06:54:43;7.60;;;4.22;;
9906;SDS011;4992;51.628;6.664;2022-09-20T06:57:10;8.73;;;3.92;;
9906;SDS011;4992;51.628;6.664;2022-09-20T06:59:42;8.73;;;4.00;;
9906;SDS011;4992;51.628;6.664;2022-09-20T07:02:07;8.88;;;3.75;;
9906;SDS011;4992;51.628;6.664;2022-09-20T07:04:34;7.63;;;4.10;;
9906;SDS011;4992;51.628;6.664;2022-09-20T07:07:00;8.10;;;3.90;;
9906;SDS011;4992;51.628;6.664;2022-09-20T07:09:27;10.35;;;3.53;;
9906;SDS011;4992;51.628;6.664;2022-09-20T07:11:52;12.70;;;4.05;;
9906;SDS011;4992;51.628;6.664;2022-09-20T07:14:20;8.57;;;3.63;;
9906;SDS011;4992;51.628;6.664;2022-09-20T07:16:47;11.00;;;3.97;;
9906;SDS011;4992;51.628;6.664;2022-09-20T07:19:12;12.52;;;3.92;;
9906;SDS011;4992;51.628;6.664;2022-09-20T07:21:38;8.05;;;3.47;;
9906;SDS011;4992;51.628;6.664;2022-09-20T07:24:04;9.95;;;3.90;;
9906;SDS011;4992;51.628;6.664;2022-09-20T07:26:29;11.50;;;3.88;;
9906;SDS011;4992;51.628;6.664;2022-09-20T07:28:56;12.27;;;3.92;;
9906;SDS011;4992;51.628;6.664;2022-09-20T07:31:23;9.38;;;3.60;;
9906;SDS011;4992;51.628;6.664;2022-09-20T07:33:50;8.73;;;3.40;;
9906;SDS011;4992;51.628;6.664;2022-09-20T07:36:16;13.25;;;3.53;;
9906;SDS011;4992;51.628;6.664;2022-09-20T07:38:45;6.68;;;3.60;;
9906;SDS011;4992;51.628;6.664;2022-09-20T07:41:12;7.38;;;3.38;;
9906;SDS011;4992;51.628;6.664;2022-09-20T07:43:38;7.68;;;3.78;;
9906;SDS011;4992;51.628;6.664;2022-09-20T07:46:03;6.70;;;2.70;;
9906;SDS011;4992;51.628;6.664;2022-09-20T07:48:30;8.10;;;3.05;;
9906;SDS011;4992;51.628;6.664;2022-09-20T07:51:01;8.77;;;2.92;;
9906;SDS011;4992;51.628;6.664;2022-09-20T07:53:29;5.38;;;2.58;;
9906;SDS011;4992;51.628;6.664;2022-09-20T07:55:59;8.77;;;2.72;;
9906;SDS011;4992;51.628;6.664;2022-09-20T07:58:25;5.50;;;2.38;;
9906;SDS011;4992;51.628;6.664;2022-09-20T08:00:54;8.75;;;3.13;;
9906;SDS011;4992;51.628;6.664;2022-09-20T08:03:21;6.68;;;3.20;;
9906;SDS011;4992;51.628;6.664;2022-09-20T08:05:47;8.23;;;2.75;;
9906;SDS011;4992;51.628;6.664;2022-09-20T08:08:14;7.72;;;2.50;;
9906;SDS011;4992;51.628;6.664;2022-09-20T08:10:45;4.35;;;2.05;;
9906;SDS011;4992;51.628;6.664;2022-09-20T08:13:13;6.78;;;2.17;;
9906;SDS011;4992;51.628;6.664;2022-09-20T08:15:39;7.90;;;2.50;;
9906;SDS011;4992;51.628;6.664;2022-09-20T08:18:05;7.60;;;2.38;;
9906;SDS011;4992;51.628;6.664;2022-09-20T08:20:33;5.18;;;2.17;;
9906;SDS011;4992;51.628;6.664;2022-09-20T08:23:00;7.95;;;1.98;;
9906;SDS011;4992;51.628;6.664;2022-09-20T08:25:27;4.85;;;1.85;;
9906;SDS011;4992;51.628;6.664;2022-09-20T08:27:53;5.53;;;2.00;;
9906;SDS011;4992;51.628;6.664;2022-09-20T08:30:19;5.38;;;1.65;;
9906;SDS011;4992;51.628;6.664;2022-09-20T08:32:45;5.75;;;2.15;;
9906;SDS011;4992;51.628;6.664;2022-09-20T08:35:10;7.65;;;1.77;;
9906;SDS011;4992;51.628;6.664;2022-09-20T08:37:38;5.80;;;1.73;;
9906;SDS011;4992;51.628;6.664;2022-09-20T08:40:04;4.60;;;1.75;;
9906;SDS011;4992;51.628;6.664;2022-09-20T08:42:31;8.98;;;1.90;;
9906;SDS011;4992;51.628;6.664;2022-09-20T08:45:01;4.20;;;1.17;;
9906;SDS011;4992;51.628;6.664;2022-09-20T08:47:35;8.85;;;2.40;;
9906;SDS011;4992;51.628;6.664;2022-09-20T08:50:05;5.07;;;1.45;;
9906;SDS011;4992;51.628;6.664;2022-09-20T08:52:35;7.93;;;1.77;;
9906;SDS011;4992;51.628;6.664;2022-09-20T08:55:17;4.72;;;1.20;;
9906;SDS011;4992;51.628;6.664;2022-09-20T08:57:49;5.13;;;1.25;;
9906;SDS011;4992;51.628;6.664;2022-09-20T09:00:18;7.63;;;1.35;;
9906;SDS011;4992;51.628;6.664;2022-09-20T09:02:47;5.55;;;1.65;;
9906;SDS011;4992;51.628;6.664;2022-09-20T09:06:00;5.05;;;0.98;;
9906;SDS011;4992;51.628;6.664;2022-09-20T09:08:11;4.53;;;1.45;;
9906;SDS011;4992;51.628;6.664;2022-09-20T09:10:55;7.82;;;1.60;;
9906;SDS011;4992;51.628;6.664;2022-09-20T09:13:34;3.72;;;1.23;;
9906;SDS011;4992;51.628;6.664;2022-09-20T09:16:16;7.03;;;1.67;;
9906;SDS011;4992;51.628;6.664;2022-09-20T09:18:42;6.25;;;1.33;;
9906;SDS011;4992;51.628;6.664;2022-09-20T09:21:17;2.03;;;1.33;;
9906;SDS011;4992;51.628;6.664;2022-09-20T09:26:23;6.65;;;1.40;;
9906;SDS011;4992;51.628;6.664;2022-09-20T09:31:42;4.95;;;1.50;;
9906;SDS011;4992;51.628;6.664;2022-09-20T09:34:22;6.72;;;1.45;;
9906;SDS011;4992;51.628;6.664;2022-09-20T09:36:50;6.65;;;1.40;;
9906;SDS011;4992;51.628;6.664;2022-09-20T09:39:22;5.93;;;1.35;;
9906;SDS011;4992;51.628;6.664;2022-09-20T09:41:48;5.25;;;1.02;;
9906;SDS011;4992;51.628;6.664;2022-09-20T09:44:19;3.88;;;1.00;;
9906;SDS011;4992;51.628;6.664;2022-09-20T09:46:47;3.55;;;0.93;;
9906;SDS011;4992;51.628;6.664;2022-09-20T09:49:24;3.45;;;1.10;;
9906;SDS011;4992;51.628;6.664;2022-09-20T09:54:42;4.35;;;1.00;;
9906;SDS011;4992;51.628;6.664;2022-09-20T10:00:03;3.10;;;0.80;;
9906;SDS011;4992;51.628;6.664;2022-09-20T10:02:48;2.78;;;0.50;;
9906;SDS011;4992;51.628;6.664;2022-09-20T10:08:09;4.95;;;0.68;;
9906;SDS011;4992;51.628;6.664;2022-09-20T10:18:54;1.10;;;0.47;;
9906;SDS011;4992;51.628;6.664;2022-09-20T10:21:41;1.52;;;0.45;;
9906;SDS011;4992;51.628;6.664;2022-09-20T10:35:24;5.47;;;0.60;;
9906;SDS011;4992;51.628;6.664;2022-09-20T10:37:59;2.88;;;0.80;;
9906;SDS011;4992;51.628;6.664;2022-09-20T10:44:14;4.88;;;0.32;;
9906;SDS011;4992;51.628;6.664;2022-09-20T10:47:03;2.70;;;0.52;;
9906;SDS011;4992;51.628;6.664;2022-09-20T10:52:33;1.52;;;0.50;;
9906;SDS011;4992;51.628;6.664;2022-09-20T10:55:30;1.52;;;0.38;;
9906;SDS011;4992;51.628;6.664;2022-09-20T11:03:58;1.45;;;0.30;;
9906;SDS011;4992;51.628;6.664;2022-09-20T11:09:34;0.98;;;0.40;;
9906;SDS011;4992;51.628;6.664;2022-09-20T11:12:23;5.05;;;0.55;;
9906;SDS011;4992;51.628;6.664;2022-09-20T11:14:57;3.45;;;0.65;;
9906;SDS011;4992;51.628;6.664;2022-09-20T11:17:37;0.60;;;0.40;;
9906;SDS011;4992;51.628;6.664;2022-09-20T11:20:14;2.05;;;0.60;;
9906;SDS011;4992;51.628;6.664;2022-09-20T11:25:23;0.88;;;0.40;;
9906;SDS011;4992;51.628;6.664;2022-09-20T11:28:10;0.90;;;0.30;;
9906;SDS011;4992;51.628;6.664;2022-09-20T11:30:53;1.20;;;0.40;;
9906;SDS011;4992;51.628;6.664;2022-09-20T11:33:27;2.83;;;0.30;;
9906;SDS011;4992;51.628;6.664;2022-09-20T11:35:57;2.97;;;0.47;;
9906;SDS011;4992;51.628;6.664;2022-09-20T11:41:08;4.07;;;0.68;;
9906;SDS011;4992;51.628;6.664;2022-09-20T11:43:36;2.75;;;0.68;;
9906;SDS011;4992;51.628;6.664;2022-09-20T11:46:07;2.15;;;0.43;;
9906;SDS011;4992;51.628;6.664;2022-09-20T11:48:41;2.58;;;0.50;;
9906;SDS011;4992;51.628;6.664;2022-09-20T11:51:42;0.82;;;0.38;;
9906;SDS011;4992;51.628;6.664;2022-09-20T11:54:21;2.63;;;0.70;;
9906;SDS011;4992;51.628;6.664;2022-09-20T11:56:54;0.63;;;0.38;;
9906;SDS011;4992;51.628;6.664;2022-09-20T11:59:32;1.27;;;0.40;;
9906;SDS011;4992;51.628;6.664;2022-09-20T12:02:01;1.77;;;0.55;;
9906;SDS011;4992;51.628;6.664;2022-09-20T12:04:29;1.92;;;0.50;;
9906;SDS011;4992;51.628;6.664;2022-09-20T12:07:02;1.55;;;0.52;;
9906;SDS011;4992;51.628;6.664;2022-09-20T12:09:32;2.63;;;0.40;;
9906;SDS011;4992;51.628;6.664;2022-09-20T12:12:12;2.70;;;0.30;;
9906;SDS011;4992;51.628;6.664;2022-09-20T12:14:59;2.78;;;0.75;;
9906;SDS011;4992;51.628;6.664;2022-09-20T12:17:59;1.90;;;0.50;;
9906;SDS011;4992;51.628;6.664;2022-09-20T12:26:00;3.25;;;0.50;;
9906;SDS011;4992;51.628;6.664;2022-09-20T12:28:41;2.17;;;0.77;;
9906;SDS011;4992;51.628;6.664;2022-09-20T12:49:48;2.88;;;0.50;;
9906;SDS011;4992;51.628;6.664;2022-09-20T13:00:29;1.60;;;0.40;;
9906;SDS011;4992;51.628;6.664;2022-09-20T13:08:42;2.60;;;0.30;;
9906;SDS011;4992;51.628;6.664;2022-09-20T13:21:32;3.90;;;0.50;;
9906;SDS011;4992;51.628;6.664;2022-09-20T13:24:01;2.10;;;0.52;;
9906;SDS011;4992;51.628;6.664;2022-09-20T13:26:29;5.00;;;1.00;;
9906;SDS011;4992;51.628;6.664;2022-09-20T13:28:58;3.55;;;0.50;;
9906;SDS011;4992;51.628;6.664;2022-09-20T13:31:29;3.58;;;0.50;;
9906;SDS011;4992;51.628;6.664;2022-09-20T13:34:11;2.38;;;0.65;;
9906;SDS011;4992;51.628;6.664;2022-09-20T13:36:49;2.72;;;0.60;;
9906;SDS011;4992;51.628;6.664;2022-09-20T13:39:25;1.40;;;0.57;;
9906;SDS011;4992;51.628;6.664;2022-09-20T13:42:07;2.95;;;0.43;;
9906;SDS011;4992;51.628;6.664;2022-09-20T13:44:38;3.05;;;0.85;;
9906;SDS011;4992;51.628;6.664;2022-09-20T13:49:58;4.40;;;1.50;;
9906;SDS011;4992;51.628;6.664;2022-09-20T13:52:42;5.35;;;0.70;;
9906;SDS011;4992;51.628;6.664;2022-09-20T13:55:45;3.08;;;1.10;;
9906;SDS011;4992;51.628;6.664;2022-09-20T13:58:05;2.67;;;0.60;;
9906;SDS011;4992;51.628;6.664;2022-09-20T14:00:31;0.98;;;0.50;;
9906;SDS011;4992;51.628;6.664;2022-09-20T14:02:59;2.92;;;0.63;;
9906;SDS011;4992;51.628;6.664;2022-09-20T14:05:25;4.85;;;1.10;;
9906;SDS011;4992;51.628;6.664;2022-09-20T14:07:53;3.88;;;0.60;;
9906;SDS011;4992;51.628;6.664;2022-09-20T14:10:30;1.95;;;0.30;;
9906;SDS011;4992;51.628;6.664;2022-09-20T14:12:59;2.45;;;0.73;;
9906;SDS011;4992;51.628;6.664;2022-09-20T14:15:35;4.13;;;0.75;;
9906;SDS011;4992;51.628;6.664;2022-09-20T14:18:03;1.35;;;0.50;;
9906;SDS011;4992;51.628;6.664;2022-09-20T14:20:31;2.72;;;0.60;;
9906;SDS011;4992;51.628;6.664;2022-09-20T14:22:58;4.32;;;0.82;;
9906;SDS011;4992;51.628;6.664;2022-09-20T14:25:24;1.90;;;0.73;;
9906;SDS011;4992;51.628;6.664;2022-09-20T14:28:04;3.58;;;0.70;;
9906;SDS011;4992;51.628;6.664;2022-09-20T14:30:43;2.00;;;0.73;;
9906;SDS011;4992;51.628;6.664;2022-09-20T14:33:14;1.95;;;0.55;;
9906;SDS011;4992;51.628;6.664;2022-09-20T14:35:45;2.42;;;0.50;;
9906;SDS011;4992;51.628;6.664;2022-09-20T14:38:15;3.25;;;0.80;;
9906;SDS011;4992;51.628;6.664;2022-09-20T14:40:48;2.78;;;0.70;;
9906;SDS011;4992;51.628;6.664;2022-09-20T14:43:36;1.75;;;0.50;;
9906;SDS011;4992;51.628;6.664;2022-09-20T14:46:02;4.03;;;0.73;;
9906;SDS011;4992;51.628;6.664;2022-09-20T14:48:33;1.90;;;0.70;;
9906;SDS011;4992;51.628;6.664;2022-09-20T14:53:43;4.78;;;0.70;;
9906;SDS011;4992;51.628;6.664;2022-09-20T14:56:11;2.17;;;0.65;;
9906;SDS011;4992;51.628;6.664;2022-09-20T15:01:36;3.97;;;0.50;;
9906;SDS011;4992;51.628;6.664;2022-09-20T15:04:08;4.78;;;0.77;;
9906;SDS011;4992;51.628;6.664;2022-09-20T15:06:42;2.65;;;0.73;;
9906;SDS011;4992;51.628;6.664;2022-09-20T15:09:09;3.95;;;0.70;;
9906;SDS011;4992;51.628;6.664;2022-09-20T15:11:37;1.23;;;0.40;;
9906;SDS011;4992;51.628;6.664;2022-09-20T15:14:03;3.60;;;0.47;;
9906;SDS011;4992;51.628;6.664;2022-09-20T15:16:28;2.40;;;0.80;;
9906;SDS011;4992;51.628;6.664;2022-09-20T15:18:54;3.35;;;0.80;;
9906;SDS011;4992;51.628;6.664;2022-09-20T15:21:20;2.75;;;0.88;;
9906;SDS011;4992;51.628;6.664;2022-09-20T15:23:45;3.90;;;0.50;;
9906;SDS011;4992;51.628;6.664;2022-09-20T15:26:11;3.35;;;0.60;;
9906;SDS011;4992;51.628;6.664;2022-09-20T15:28:38;3.95;;;0.60;;
9906;SDS011;4992;51.628;6.664;2022-09-20T15:31:04;4.65;;;1.10;;
9906;SDS011;4992;51.628;6.664;2022-09-20T15:33:32;2.65;;;0.65;;
9906;SDS011;4992;51.628;6.664;2022-09-20T15:35:58;1.70;;;0.68;;
9906;SDS011;4992;51.628;6.664;2022-09-20T15:38:26;2.28;;;0.80;;
9906;SDS011;4992;51.628;6.664;2022-09-20T15:40:52;2.53;;;0.65;;
9906;SDS011;4992;51.628;6.664;2022-09-20T15:43:19;5.53;;;1.65;;
9906;SDS011;4992;51.628;6.664;2022-09-20T15:45:49;7.35;;;0.98;;
9906;SDS011;4992;51.628;6.664;2022-09-20T15:48:17;2.85;;;0.77;;
9906;SDS011;4992;51.628;6.664;2022-09-20T15:50:57;2.30;;;1.08;;
9906;SDS011;4992;51.628;6.664;2022-09-20T15:53:31;4.55;;;0.90;;
9906;SDS011;4992;51.628;6.664;2022-09-20T15:56:03;3.17;;;0.50;;
9906;SDS011;4992;51.628;6.664;2022-09-20T15:58:38;6.55;;;1.63;;
9906;SDS011;4992;51.628;6.664;2022-09-20T16:01:10;3.20;;;0.80;;
9906;SDS011;4992;51.628;6.664;2022-09-20T16:03:36;3.53;;;0.70;;
9906;SDS011;4992;51.628;6.664;2022-09-20T16:06:03;6.22;;;0.70;;
9906;SDS011;4992;51.628;6.664;2022-09-20T16:08:31;2.60;;;0.80;;
9906;SDS011;4992;51.628;6.664;2022-09-20T16:10:58;3.33;;;0.98;;
9906;SDS011;4992;51.628;6.664;2022-09-20T16:13:24;3.25;;;0.90;;
9906;SDS011;4992;51.628;6.664;2022-09-20T16:15:59;3.35;;;1.15;;
9906;SDS011;4992;51.628;6.664;2022-09-20T16:18:28;7.22;;;1.20;;
9906;SDS011;4992;51.628;6.664;2022-09-20T16:21:13;2.65;;;0.70;;
9906;SDS011;4992;51.628;6.664;2022-09-20T16:23:41;4.53;;;0.60;;
9906;SDS011;4992;51.628;6.664;2022-09-20T16:26:11;2.30;;;0.63;;
9906;SDS011;4992;51.628;6.664;2022-09-20T16:28:40;3.42;;;0.80;;
9906;SDS011;4992;51.628;6.664;2022-09-20T16:31:22;3.95;;;0.73;;
9906;SDS011;4992;51.628;6.664;2022-09-20T16:33:52;2.13;;;0.50;;
9906;SDS011;4992;51.628;6.664;2022-09-20T16:36:18;2.78;;;0.90;;
9906;SDS011;4992;51.628;6.664;2022-09-20T16:38:44;2.42;;;0.68;;
9906;SDS011;4992;51.628;6.664;2022-09-20T16:41:10;2.95;;;0.60;;
9906;SDS011;4992;51.628;6.664;2022-09-20T16:43:36;2.63;;;0.77;;
9906;SDS011;4992;51.628;6.664;2022-09-20T16:46:01;2.58;;;0.60;;
9906;SDS011;4992;51.628;6.664;2022-09-20T16:48:28;3.45;;;0.70;;
9906;SDS011;4992;51.628;6.664;2022-09-20T16:50:55;2.72;;;0.70;;
9906;SDS011;4992;51.628;6.664;2022-09-20T16:53:21;4.90;;;0.70;;
9906;SDS011;4992;51.628;6.664;2022-09-20T16:55:47;2.80;;;0.50;;
9906;SDS011;4992;51.628;6.664;2022-09-20T16:58:13;2.67;;;0.85;;
9906;SDS011;4992;51.628;6.664;2022-09-20T17:00:39;3.80;;;0.70;;
9906;SDS011;4992;51.628;6.664;2022-09-20T17:03:05;3.08;;;0.88;;
9906;SDS011;4992;51.628;6.664;2022-09-20T17:05:30;2.67;;;0.80;;
9906;SDS011;4992;51.628;6.664;2022-09-20T17:07:56;4.03;;;0.88;;
9906;SDS011;4992;51.628;6.664;2022-09-20T17:10:21;4.95;;;0.90;;
9906;SDS011;4992;51.628;6.664;2022-09-20T17:12:48;5.45;;;1.10;;
9906;SDS011;4992;51.628;6.664;2022-09-20T17:15:17;3.60;;;0.90;;
9906;SDS011;4992;51.628;6.664;2022-09-20T17:17:43;6.53;;;1.20;;
9906;SDS011;4992;51.628;6.664;2022-09-20T17:20:09;3.40;;;1.08;;
9906;SDS011;4992;51.628;6.664;2022-09-20T17:22:35;3.45;;;0.80;;
9906;SDS011;4992;51.628;6.664;2022-09-20T17:25:00;7.13;;;0.82;;
9906;SDS011;4992;51.628;6.664;2022-09-20T17:27:26;2.97;;;0.80;;
9906;SDS011;4992;51.628;6.664;2022-09-20T17:29:52;2.95;;;1.10;;
9906;SDS011;4992;51.628;6.664;2022-09-20T17:32:17;4.95;;;0.93;;
9906;SDS011;4992;51.628;6.664;2022-09-20T17:34:44;4.60;;;0.77;;
9906;SDS011;4992;51.628;6.664;2022-09-20T17:37:10;2.33;;;1.00;;
9906;SDS011;4992;51.628;6.664;2022-09-20T17:39:36;1.55;;;0.70;;
9906;SDS011;4992;51.628;6.664;2022-09-20T17:42:01;2.75;;;0.90;;
9906;SDS011;4992;51.628;6.664;2022-09-20T17:44:27;2.17;;;0.68;;
9906;SDS011;4992;51.628;6.664;2022-09-20T17:46:53;2.33;;;0.80;;
9906;SDS011;4992;51.628;6.664;2022-09-20T17:49:19;3.20;;;0.98;;
9906;SDS011;4992;51.628;6.664;2022-09-20T17:51:47;6.03;;;1.02;;
9906;SDS011;4992;51.628;6.664;2022-09-20T17:54:17;3.58;;;0.77;;
9906;SDS011;4992;51.628;6.664;2022-09-20T17:56:44;3.60;;;0.65;;
9906;SDS011;4992;51.628;6.664;2022-09-20T17:59:12;2.78;;;0.85;;
9906;SDS011;4992;51.628;6.664;2022-09-20T18:01:40;2.80;;;1.30;;
9906;SDS011;4992;51.628;6.664;2022-09-20T18:04:06;4.18;;;1.02;;
9906;SDS011;4992;51.628;6.664;2022-09-20T18:06:39;2.58;;;1.30;;
9906;SDS011;4992;51.628;6.664;2022-09-20T18:09:07;2.70;;;1.10;;
9906;SDS011;4992;51.628;6.664;2022-09-20T18:11:35;3.63;;;1.20;;
9906;SDS011;4992;51.628;6.664;2022-09-20T18:14:03;2.60;;;0.95;;
9906;SDS011;4992;51.628;6.664;2022-09-20T18:16:30;5.55;;;1.50;;
9906;SDS011;4992;51.628;6.664;2022-09-20T18:18:57;6.65;;;1.05;;
9906;SDS011;4992;51.628;6.664;2022-09-20T18:21:24;4.32;;;1.20;;
9906;SDS011;4992;51.628;6.664;2022-09-20T18:23:51;3.08;;;1.40;;
9906;SDS011;4992;51.628;6.664;2022-09-20T18:26:21;5.60;;;1.33;;
9906;SDS011;4992;51.628;6.664;2022-09-20T18:28:52;6.20;;;1.85;;
9906;SDS011;4992;51.628;6.664;2022-09-20T18:31:19;6.25;;;1.38;;
9906;SDS011;4992;51.628;6.664;2022-09-20T18:33:45;3.20;;;1.30;;
9906;SDS011;4992;51.628;6.664;2022-09-20T18:36:11;1.25;;;1.15;;
9906;SDS011;4992;51.628;6.664;2022-09-20T18:38:37;3.97;;;1.30;;
9906;SDS011;4992;51.628;6.664;2022-09-20T18:41:04;4.53;;;1.17;;
9906;SDS011;4992;51.628;6.664;2022-09-20T18:43:30;3.08;;;1.35;;
9906;SDS011;4992;51.628;6.664;2022-09-20T18:45:57;5.55;;;1.50;;
9906;SDS011;4992;51.628;6.664;2022-09-20T18:48:31;3.55;;;1.52;;
9906;SDS011;4992;51.628;6.664;2022-09-20T18:50:58;5.45;;;1.60;;
9906;SDS011;4992;51.628;6.664;2022-09-20T18:53:28;3.85;;;1.40;;
9906;SDS011;4992;51.628;6.664;2022-09-20T18:56:04;3.47;;;1.40;;
9906;SDS011;4992;51.628;6.664;2022-09-20T18:58:31;5.90;;;1.77;;
9906;SDS011;4992;51.628;6.664;2022-09-20T19:03:47;4.03;;;1.52;;
9906;SDS011;4992;51.628;6.664;2022-09-20T19:06:22;3.88;;;1.67;;
9906;SDS011;4992;51.628;6.664;2022-09-20T19:08:59;6.05;;;1.33;;
9906;SDS011;4992;51.628;6.664;2022-09-20T19:11:35;5.60;;;1.55;;
9906;SDS011;4992;51.628;6.664;2022-09-20T19:14:05;4.47;;;1.50;;
9906;SDS011;4992;51.628;6.664;2022-09-20T19:16:40;3.33;;;1.80;;
9906;SDS011;4992;51.628;6.664;2022-09-20T19:19:20;5.95;;;1.70;;
9906;SDS011;4992;51.628;6.664;2022-09-20T19:22:04;2.90;;;2.00;;
9906;SDS011;4992;51.628;6.664;2022-09-20T19:24:51;2.20;;;1.10;;
9906;SDS011;4992;51.628;6.664;2022-09-20T19:27:37;6.38;;;1.48;;
9906;SDS011;4992;51.628;6.664;2022-09-20T19:30:03;1.63;;;1.30;;
9906;SDS011;4992;51.628;6.664;2022-09-20T19:32:29;8.73;;;1.73;;
9906;SDS011;4992;51.628;6.664;2022-09-20T19:34:55;2.97;;;1.50;;
9906;SDS011;4992;51.628;6.664;2022-09-20T19:45:45;7.95;;;2.45;;
9906;SDS011;4992;51.628;6.664;2022-09-20T19:48:20;9.00;;;3.60;;
9906;SDS011;4992;51.628;6.664;2022-09-20T19:50:55;8.17;;;2.97;;
9906;SDS011;4992;51.628;6.664;2022-09-20T19:53:22;9.07;;;3.23;;
9906;SDS011;4992;51.628;6.664;2022-09-20T19:55:52;8.07;;;2.67;;
9906;SDS011;4992;51.628;6.664;2022-09-20T19:58:21;6.07;;;3.07;;
9906;SDS011;4992;51.628;6.664;2022-09-20T20:00:47;4.93;;;2.33;;
9906;SDS011;4992;51.628;6.664;2022-09-20T20:03:13;4.93;;;2.40;;
9906;SDS011;4992;51.628;6.664;2022-09-20T20:08:49;5.90;;;2.70;;
9906;SDS011;4992;51.628;6.664;2022-09-20T20:14:35;7.67;;;2.67;;
9906;SDS011;4992;51.628;6.664;2022-09-20T20:19:40;9.77;;;3.93;;
9906;SDS011;4992;51.628;6.664;2022-09-20T20:23:15;4.77;;;3.20;;
9906;SDS011;4992;51.628;6.664;2022-09-20T20:25:17;7.67;;;3.67;;
9906;SDS011;4992;51.628;6.664;2022-09-20T20:27:59;7.23;;;5.27;;
9906;SDS011;4992;51.628;6.664;2022-09-20T20:30:25;8.53;;;4.40;;
9906;SDS011;4992;51.628;6.664;2022-09-20T20:32:53;5.10;;;4.57;;
9906;SDS011;4992;51.628;6.664;2022-09-20T20:35:22;8.60;;;4.57;;
9906;SDS011;4992;51.628;6.664;2022-09-20T20:37:48;8.50;;;4.57;;
9906;SDS011;4992;51.628;6.664;2022-09-20T20:40:14;7.37;;;3.80;;
9906;SDS011;4992;51.628;6.664;2022-09-20T20:42:39;7.13;;;3.67;;
9906;SDS011;4992;51.628;6.664;2022-09-20T20:45:07;6.80;;;3.23;;
9906;SDS011;4992;51.628;6.664;2022-09-20T20:47:33;9.70;;;3.40;;
9906;SDS011;4992;51.628;6.664;2022-09-20T20:49:58;10.53;;;3.97;;
9906;SDS011;4992;51.628;6.664;2022-09-20T20:52:24;7.97;;;3.80;;
9906;SDS011;4992;51.628;6.664;2022-09-20T20:54:50;7.90;;;4.30;;
9906;SDS011;4992;51.628;6.664;2022-09-20T20:57:15;7.30;;;3.97;;
9906;SDS011;4992;51.628;6.664;2022-09-20T20:59:42;6.20;;;4.47;;
9906;SDS011;4992;51.628;6.664;2022-09-20T21:02:08;7.77;;;4.17;;